Time;durP1;ratioP1;P1;durP2;ratioP2;P2;SDS_P1;SDS_P2;PMS_P1;PMS_P2;Temp;Humidity;BMP_temperature;BMP_pressure;BME280_temperature;BME280_humidity;BME280_pressure;Samples;Min_cycle;Max_cycle;Signal;HPM_P1;HPM_P2
2024/01/31 00:02:05;;;;;;;132.50;60.40;;;;;;;-3.94;100.00;100583.24;270302;1295;22352;-86
2024/01/31 00:24:16;;;;;;;114.90;51.30;;;;;;;-4.01;100.00;100586.01;272291;1281;22260;-86
2024/01/31 00:47:03;;;;;;;119.00;51.90;;;;;;;-4.13;100.00;100582.48;272150;1278;22222;-85
2024/01/31 01:01:35;;;;;;;123.50;52.30;;;;;;;-4.16;100.00;100584.20;272397;1276;22237;-84
2024/01/31 01:08:39;;;;;;;107.20;48.90;;;;;;;-4.22;100.00;100581.14;272270;1282;22430;-83
2024/01/31 01:14:43;;;;;;;102.00;44.70;;;;;;;-4.28;100.00;100580.61;272616;1278;22250;-83
2024/01/31 01:21:30;;;;;;;113.10;49.40;;;;;;;-4.35;100.00;100580.21;272522;1275;23499;-83
2024/01/31 01:27:34;;;;;;;108.10;48.80;;;;;;;-4.38;100.00;100581.05;272047;1275;22377;-83
2024/01/31 01:34:22;;;;;;;113.60;49.10;;;;;;;-4.42;100.00;100583.77;273891;1269;22189;-83
2024/01/31 01:41:43;;;;;;;114.40;49.20;;;;;;;-4.48;100.00;100579.35;273860;1276;22224;-83
2024/01/31 01:48:57;;;;;;;94.00;44.30;;;;;;;-4.44;100.00;100579.73;272933;1280;22320;-84
2024/01/31 02:03:30;;;;;;;102.90;44.50;;;;;;;-4.47;100.00;100575.77;271384;1279;22948;-84
2024/01/31 02:09:48;;;;;;;103.70;46.50;;;;;;;-4.47;100.00;100572.67;271025;1273;22760;-85
2024/01/31 02:15:54;;;;;;;106.10;44.00;;;;;;;-4.47;100.00;100575.28;270608;1273;22247;-84
2024/01/31 02:22:39;;;;;;;103.50;43.20;;;;;;;-4.48;100.00;100574.00;271520;1264;22985;-84
2024/01/31 02:37:12;;;;;;;97.10;42.80;;;;;;;-4.53;100.00;100565.72;272500;1259;106831;-83
2024/01/31 02:43:41;;;;;;;103.60;45.20;;;;;;;-4.57;100.00;100564.09;272388;1269;23220;-83
2024/01/31 02:50:12;;;;;;;100.30;44.00;;;;;;;-4.59;100.00;100562.98;273545;1273;22274;-83
2024/01/31 02:56:14;;;;;;;106.40;43.80;;;;;;;-4.57;100.00;100559.96;272894;1269;22405;-83
2024/01/31 03:02:21;;;;;;;118.20;48.90;;;;;;;-4.62;100.00;100555.22;273667;1269;22258;-83
2024/01/31 03:15:49;;;;;;;107.10;45.60;;;;;;;-4.67;100.00;100559.11;273806;1276;22527;-83
2024/01/31 03:22:37;;;;;;;109.50;48.10;;;;;;;-4.69;100.00;100562.23;273792;1275;22217;-83
2024/01/31 03:29:32;;;;;;;129.20;54.70;;;;;;;-4.70;100.00;100562.02;273755;1269;22245;-83
2024/01/31 03:35:37;;;;;;;124.60;54.70;;;;;;;-4.72;100.00;100559.42;273737;1269;22246;-83
2024/01/31 03:41:44;;;;;;;129.50;54.00;;;;;;;-4.77;100.00;100561.67;273192;1269;22182;-83
2024/01/31 03:48:28;;;;;;;153.80;68.90;;;;;;;-4.75;100.00;100563.23;273737;1269;22187;-83
2024/01/31 03:54:49;;;;;;;171.70;76.90;;;;;;;-4.78;100.00;100563.57;271427;1269;22525;-82
2024/01/31 04:01:30;;;;;;;163.10;74.10;;;;;;;-4.82;100.00;100565.30;271025;1269;22217;-82
2024/01/31 04:08:04;;;;;;;166.50;77.30;;;;;;;-4.74;100.00;100560.12;271112;1269;23368;-82
2024/01/31 04:14:25;;;;;;;178.80;80.80;;;;;;;-4.65;100.00;100559.04;269925;1269;22537;-82
2024/01/31 04:20:27;;;;;;;168.40;76.40;;;;;;;-4.64;100.00;100566.83;271417;1269;22195;-83
2024/01/31 04:26:29;;;;;;;166.90;74.50;;;;;;;-4.63;100.00;100567.83;272937;1269;22461;-82
2024/01/31 04:32:30;;;;;;;161.30;73.00;;;;;;;-4.56;100.00;100568.70;272633;1268;26616;-82
2024/01/31 04:38:53;;;;;;;183.90;78.00;;;;;;;-4.50;100.00;100563.30;271005;1269;22436;-82
2024/01/31 04:45:31;;;;;;;170.90;76.20;;;;;;;-4.45;100.00;100564.69;273153;1269;22345;-82
2024/01/31 04:51:33;;;;;;;165.30;76.10;;;;;;;-4.41;100.00;100559.73;271492;1269;22285;-82
2024/01/31 04:57:50;;;;;;;172.60;76.60;;;;;;;-4.38;100.00;100551.08;273667;1269;23103;-82
2024/01/31 05:03:52;;;;;;;166.30;72.70;;;;;;;-4.36;100.00;100551.80;272525;1269;26647;-82
2024/01/31 05:09:54;;;;;;;159.60;73.60;;;;;;;-4.37;100.00;100560.71;270141;1269;22521;-84
2024/01/31 05:15:56;;;;;;;156.50;71.60;;;;;;;-4.37;100.00;100571.02;269978;1269;22548;-83
2024/01/31 05:21:57;;;;;;;152.10;68.70;;;;;;;-4.36;100.00;100574.10;272816;1269;22387;-83
2024/01/31 05:27:59;;;;;;;144.10;68.20;;;;;;;-4.31;100.00;100581.68;273187;1269;22618;-82
2024/01/31 05:34:01;;;;;;;160.30;71.40;;;;;;;-4.22;100.00;100586.70;268322;1269;6501946;-82
2024/01/31 05:40:04;;;;;;;152.50;69.60;;;;;;;-4.13;100.00;100578.95;273077;1265;22524;-82
2024/01/31 05:46:06;;;;;;;155.90;71.50;;;;;;;-4.07;100.00;100571.58;273156;1269;22403;-83
2024/01/31 05:52:33;;;;;;;158.70;73.10;;;;;;;-3.98;100.00;100568.41;273765;1269;22234;-82
2024/01/31 05:58:40;;;;;;;152.70;69.60;;;;;;;-3.92;100.00;100568.58;273929;1269;22187;-82
2024/01/31 06:04:41;;;;;;;152.80;70.80;;;;;;;-3.82;100.00;100565.78;272946;1269;23097;-83
2024/01/31 06:10:44;;;;;;;141.30;66.30;;;;;;;-3.74;100.00;100570.77;272160;1263;22306;-82
2024/01/31 06:16:45;;;;;;;151.90;68.10;;;;;;;-3.66;100.00;100573.43;273411;1269;22214;-82
2024/01/31 06:22:59;;;;;;;152.50;68.60;;;;;;;-3.57;100.00;100577.48;273404;1268;22748;-83
2024/01/31 06:29:01;;;;;;;147.90;70.10;;;;;;;-3.51;100.00;100582.92;273531;1269;23332;-83
2024/01/31 06:35:03;;;;;;;161.10;72.60;;;;;;;-3.42;100.00;100582.84;273174;1268;22279;-82
2024/01/31 06:41:05;;;;;;;154.70;73.20;;;;;;;-3.30;100.00;100582.39;272935;1269;27751;-82
2024/01/31 06:47:07;;;;;;;134.50;66.40;;;;;;;-3.18;100.00;100588.88;271391;1269;22440;-83
2024/01/31 06:53:08;;;;;;;151.60;74.10;;;;;;;-3.12;100.00;100592.21;272687;1269;22424;-83
2024/01/31 06:59:30;;;;;;;147.40;72.70;;;;;;;-2.99;100.00;100602.03;273605;1269;23028;-82
2024/01/31 07:05:32;;;;;;;157.30;71.10;;;;;;;-2.86;100.00;100597.71;272590;1269;22225;-83
2024/01/31 07:11:53;;;;;;;145.70;74.00;;;;;;;-2.76;100.00;100601.59;273122;1269;22239;-82
2024/01/31 07:17:55;;;;;;;152.90;74.60;;;;;;;-2.63;100.00;100606.10;273083;1269;22564;-82
2024/01/31 07:24:12;;;;;;;114.50;54.40;;;;;;;-2.49;100.00;100603.16;273370;1269;22279;-82
2024/01/31 07:30:57;;;;;;;132.80;63.70;;;;;;;-2.38;100.00;100603.38;273513;1269;23002;-83
2024/01/31 07:37:46;;;;;;;138.30;66.10;;;;;;;-2.23;100.00;100616.58;273883;1269;23331;-82
2024/01/31 07:44:10;;;;;;;157.10;73.50;;;;;;;-1.96;100.00;100618.09;273816;1270;23416;-82
2024/01/31 07:51:05;;;;;;;143.10;70.20;;;;;;;-1.74;100.00;100617.91;273606;1272;22212;-83
2024/01/31 07:57:31;;;;;;;144.90;71.00;;;;;;;-1.46;100.00;100623.05;273768;1256;23043;-82
2024/01/31 08:03:52;;;;;;;;;;;;;;;-1.23;100.00;100614.81;273183;1269;22558;-83
2024/01/31 08:09:54;;;;;;;125.60;61.30;;;;;;;-1.06;100.00;100616.12;273484;1269;22177;-82
2024/01/31 08:16:15;;;;;;;133.90;63.00;;;;;;;-0.87;100.00;100623.96;273766;1269;23969;-82
2024/01/31 08:22:21;;;;;;;137.30;61.10;;;;;;;-0.66;100.00;100633.32;273401;1277;23996;-83
2024/01/31 08:28:55;;;;;;;121.60;54.50;;;;;;;-0.50;100.00;100638.77;273519;1269;22270;-84
2024/01/31 08:35:19;;;;;;;121.90;55.80;;;;;;;-0.35;100.00;100639.43;273787;1276;22323;-84
2024/01/31 08:42:28;;;;;;;121.40;57.30;;;;;;;-0.20;100.00;100643.89;272408;1269;22569;-84
2024/01/31 08:48:58;;;;;;;123.90;56.30;;;;;;;-0.07;100.00;100642.27;272205;1269;22320;-85
2024/01/31 08:55:35;;;;;;;121.10;58.60;;;;;;;0.03;100.00;100638.61;273252;1272;22279;-83
2024/01/31 09:01:36;;;;;;;112.70;59.10;;;;;;;0.15;100.00;100643.11;271493;1269;22568;-84
2024/01/31 09:07:48;;;;;;;99.90;51.70;;;;;;;0.25;100.00;100641.45;271677;1268;23043;-84
2024/01/31 09:29:48;;;;;;;92.40;49.00;;;;;;;0.66;100.00;100643.90;272816;1272;22251;-87
2024/01/31 09:35:50;;;;;;;91.20;46.30;;;;;;;0.78;100.00;100642.00;272096;1272;22625;-86
2024/01/31 09:42:42;;;;;;;89.70;44.00;;;;;;;0.89;100.00;100637.46;272265;1269;22245;-85
2024/01/31 09:48:44;;;;;;;86.50;43.60;;;;;;;1.00;100.00;100636.20;272428;1269;22668;-86
2024/01/31 09:55:36;;;;;;;79.50;43.30;;;;;;;1.11;100.00;100633.66;270963;1269;22283;-85
2024/01/31 10:02:37;;;;;;;78.40;41.00;;;;;;;1.20;100.00;100632.61;272824;1269;22314;-86
2024/01/31 10:09:06;;;;;;;86.10;42.60;;;;;;;1.26;100.00;100628.21;273216;1273;22194;-85
2024/01/31 10:15:32;;;;;;;83.60;41.80;;;;;;;1.33;100.00;100618.59;273471;1275;23257;-84
2024/01/31 10:21:59;;;;;;;80.60;41.20;;;;;;;1.38;100.00;100615.38;273767;1269;22171;-86
2024/01/31 10:28:27;;;;;;;81.40;42.90;;;;;;;1.42;100.00;100608.84;273286;1269;22228;-86
2024/01/31 10:34:29;;;;;;;82.40;44.30;;;;;;;1.49;100.00;100601.59;272976;1269;23201;-86
2024/01/31 10:40:33;;;;;;;88.60;44.30;;;;;;;1.59;100.00;100602.77;271921;1269;24526;-85
2024/01/31 10:46:35;;;;;;;87.90;46.40;;;;;;;1.66;100.00;100592.48;270464;1269;22536;-86
2024/01/31 10:52:38;;;;;;;94.50;48.10;;;;;;;1.74;100.00;100579.86;271931;1269;23358;-85
2024/01/31 10:58:40;;;;;;;79.80;43.60;;;;;;;1.84;100.00;100584.27;272614;1269;22361;-86
2024/01/31 11:04:42;;;;;;;76.20;42.50;;;;;;;1.95;100.00;100586.91;272004;1269;22476;-85
2024/01/31 11:18:36;;;;;;;81.10;45.20;;;;;;;2.24;100.00;100580.39;273186;1272;22235;-85
2024/01/31 11:25:28;;;;;;;84.80;43.90;;;;;;;2.33;100.00;100581.89;273233;1274;22229;-85
2024/01/31 11:31:58;;;;;;;83.80;45.30;;;;;;;2.38;100.00;100582.34;273463;1276;22289;-86
2024/01/31 11:38:39;;;;;;;86.10;46.40;;;;;;;2.37;100.00;100577.11;273457;1269;23033;-85
2024/01/31 11:52:33;;;;;;;88.80;45.90;;;;;;;2.30;100.00;100575.31;272823;1269;22740;-86
2024/01/31 12:06:23;;;;;;;81.70;44.10;;;;;;;2.30;100.00;100548.34;272311;1269;22315;-86
2024/01/31 12:12:26;;;;;;;85.00;44.10;;;;;;;2.36;100.00;100535.81;272714;1269;23573;-87
2024/01/31 12:18:28;;;;;;;88.00;42.50;;;;;;;2.44;100.00;100537.63;271854;1269;22635;-86
2024/01/31 12:24:30;;;;;;;86.40;42.70;;;;;;;2.49;100.00;100543.54;270541;1269;23163;-86
2024/01/31 12:30:56;;;;;;;72.90;36.30;;;;;;;2.50;100.00;100553.58;272743;1276;22272;-86
2024/01/31 12:37:48;;;;;;;77.30;40.50;;;;;;;2.51;100.00;100554.00;273089;1269;22289;-86
2024/01/31 12:44:15;;;;;;;84.10;43.20;;;;;;;2.53;100.00;100542.77;273400;1277;22848;-86
2024/01/31 12:50:35;;;;;;;79.20;42.20;;;;;;;2.55;100.00;100524.65;271467;1269;22652;-87
2024/01/31 12:57:20;;;;;;;80.50;44.30;;;;;;;2.55;100.00;100531.95;270115;1270;22684;-86
2024/01/31 13:04:15;;;;;;;86.90;46.00;;;;;;;2.55;100.00;100524.77;272980;1270;22214;-87
2024/01/31 13:11:02;;;;;;;86.70;44.20;;;;;;;2.55;100.00;100517.04;273588;1272;22568;-87
2024/01/31 13:17:06;;;;;;;93.70;49.80;;;;;;;2.60;100.00;100524.23;273694;1273;22185;-87
2024/01/31 13:23:23;;;;;;;90.20;49.90;;;;;;;2.64;100.00;100524.83;273157;1269;22413;-87
2024/01/31 13:30:14;;;;;;;93.40;48.10;;;;;;;2.66;100.00;100527.50;273246;1275;22863;-87
2024/01/31 13:36:45;;;;;;;91.20;49.10;;;;;;;2.66;100.00;100528.98;273934;1274;22460;-87
2024/01/31 13:42:55;;;;;;;99.50;52.40;;;;;;;2.63;100.00;100516.47;273319;1274;22169;-88
2024/01/31 13:48:58;;;;;;;94.10;50.50;;;;;;;2.60;100.00;100498.33;273115;1269;22186;-88
2024/01/31 13:55:50;;;;;;;99.10;54.00;;;;;;;2.59;100.00;100494.92;273292;1277;22209;-87
2024/01/31 14:02:22;;;;;;;101.60;52.90;;;;;;;2.59;100.00;100493.42;271443;1269;23675;-88
2024/01/31 14:08:36;;;;;;;105.70;55.50;;;;;;;2.53;100.00;100496.13;273201;1273;22176;-87
2024/01/31 14:14:59;;;;;;;93.50;51.90;;;;;;;2.54;100.00;100491.80;269986;1264;22636;-86
2024/01/31 14:21:21;;;;;;;98.70;54.90;;;;;;;2.57;100.00;100493.92;270892;1261;23280;-87
2024/01/31 14:28:15;;;;;;;115.10;59.10;;;;;;;2.56;100.00;100493.34;273304;1277;22315;-87
2024/01/31 14:34:43;;;;;;;105.40;56.80;;;;;;;2.54;100.00;100492.55;273167;1269;22692;-87
2024/01/31 14:40:45;;;;;;;107.10;55.30;;;;;;;2.46;100.00;100488.48;272507;1269;23898;-86
2024/01/31 14:46:50;;;;;;;104.50;55.90;;;;;;;2.41;100.00;100492.68;271863;1269;22330;-87
2024/01/31 14:52:58;;;;;;;107.40;56.10;;;;;;;2.32;100.00;100495.42;273276;1278;23293;-88
2024/01/31 14:59:00;;;;;;;125.80;63.30;;;;;;;2.28;100.00;100481.73;271625;1269;23606;-89
2024/01/31 15:12:41;;;;;;;118.20;62.30;;;;;;;2.33;100.00;100473.58;273499;1273;22411;-87
2024/01/31 15:19:04;;;;;;;119.60;61.90;;;;;;;2.32;100.00;100478.83;273094;1270;22295;-87
2024/01/31 15:25:14;;;;;;;123.00;65.80;;;;;;;2.21;100.00;100488.45;273552;1272;22220;-88
2024/01/31 15:31:18;;;;;;;111.70;58.30;;;;;;;2.19;100.00;100475.23;272875;1269;22203;-87
2024/01/31 15:37:52;;;;;;;118.50;62.70;;;;;;;2.18;100.00;100471.83;273271;1277;22345;-87
2024/01/31 15:44:40;;;;;;;128.40;64.60;;;;;;;2.19;100.00;100462.42;273348;1271;22199;-87
2024/01/31 15:50:57;;;;;;;118.50;61.90;;;;;;;2.21;100.00;100451.64;272879;1269;22743;-88
2024/01/31 15:57:35;;;;;;;123.20;62.60;;;;;;;2.18;100.00;100440.05;273688;1270;22239;-88
2024/01/31 16:04:03;;;;;;;128.30;66.00;;;;;;;2.16;100.00;100436.99;273393;1275;22460;-88
2024/01/31 16:10:29;;;;;;;126.60;67.90;;;;;;;2.12;100.00;100444.54;272698;1269;23430;-88
2024/01/31 16:16:49;;;;;;;133.60;71.10;;;;;;;2.06;100.00;100434.44;273117;1270;23119;-87
2024/01/31 16:22:51;;;;;;;122.20;69.30;;;;;;;2.09;100.00;100422.73;271799;1270;23146;-89
2024/01/31 16:28:54;;;;;;;140.00;77.10;;;;;;;2.09;100.00;100415.02;271496;1269;23123;-92
2024/01/31 16:34:56;;;;;;;125.90;67.60;;;;;;;2.07;100.00;100417.42;272465;1269;22438;-89
2024/01/31 16:40:59;;;;;;;131.90;71.50;;;;;;;2.01;100.00;100412.02;272372;1269;24370;-88
2024/01/31 16:47:04;;;;;;;137.50;72.40;;;;;;;1.97;100.00;100406.48;273125;1271;22232;-88
2024/01/31 16:53:34;;;;;;;141.10;73.50;;;;;;;1.95;100.00;100403.98;273535;1272;22233;-89
2024/01/31 17:00:01;;;;;;;123.10;70.70;;;;;;;1.94;100.00;100396.41;273628;1270;23215;-89
2024/01/31 17:06:04;;;;;;;139.50;71.00;;;;;;;1.90;100.00;100393.92;272664;1269;22399;-88
2024/01/31 17:12:38;;;;;;;146.90;79.40;;;;;;;1.90;100.00;100390.08;273171;1269;22206;-89
2024/01/31 17:18:40;;;;;;;150.20;80.30;;;;;;;1.90;100.00;100399.86;272601;1268;22398;-89
2024/01/31 17:24:42;;;;;;;151.40;82.80;;;;;;;1.92;100.00;100398.98;272542;1269;22512;-90
2024/01/31 17:30:45;;;;;;;156.40;83.30;;;;;;;1.95;100.00;100389.27;272554;1269;22440;-89
2024/01/31 17:36:51;;;;;;;151.00;82.00;;;;;;;1.96;100.00;100390.90;270844;1269;164992;-89
2024/01/31 17:42:53;;;;;;;161.00;83.20;;;;;;;1.91;100.00;100392.66;272100;1269;23414;-89
2024/01/31 17:48:56;;;;;;;169.20;88.40;;;;;;;1.85;100.00;100399.30;270813;1269;25333;-90
2024/01/31 17:54:58;;;;;;;151.20;81.30;;;;;;;1.81;100.00;100396.16;270250;1269;22554;-89
2024/01/31 18:01:14;;;;;;;171.90;86.70;;;;;;;1.75;100.00;100395.50;263495;1269;10002560;-88
2024/01/31 18:07:18;;;;;;;160.60;84.40;;;;;;;1.72;100.00;100396.08;272413;1269;24415;-89
2024/01/31 18:13:21;;;;;;;150.50;79.20;;;;;;;1.68;100.00;100396.44;272497;1269;22431;-89
2024/01/31 18:19:25;;;;;;;158.70;82.30;;;;;;;1.66;100.00;100396.02;273089;1273;22192;-89
2024/01/31 18:25:30;;;;;;;167.00;86.60;;;;;;;1.69;100.00;100403.02;272121;1269;23640;-89
2024/01/31 18:31:33;;;;;;;169.90;85.10;;;;;;;1.68;100.00;100406.75;271962;1269;22564;-91
2024/01/31 18:37:37;;;;;;;156.40;81.00;;;;;;;1.66;100.00;100400.92;271186;1269;22583;-89
2024/01/31 18:43:42;;;;;;;143.60;76.50;;;;;;;1.64;100.00;100391.59;272169;1269;22228;-89
2024/01/31 18:49:57;;;;;;;170.30;90.80;;;;;;;1.61;100.00;100384.72;272366;1269;22809;-90
2024/01/31 18:56:01;;;;;;;184.40;103.90;;;;;;;1.63;100.00;100381.77;272262;1269;23885;-89
2024/01/31 19:02:04;;;;;;;186.70;101.90;;;;;;;1.68;100.00;100376.42;272653;1269;22291;-89
2024/01/31 19:08:07;;;;;;;168.40;91.70;;;;;;;1.69;100.00;100362.75;270890;1269;23482;-90
2024/01/31 19:14:19;;;;;;;182.50;93.30;;;;;;;1.70;100.00;100356.30;270968;1269;22561;-88
2024/01/31 19:20:22;;;;;;;160.30;86.80;;;;;;;1.69;100.00;100350.15;271857;1269;22235;-90
2024/01/31 19:26:25;;;;;;;168.10;91.90;;;;;;;1.65;100.00;100346.90;271945;1269;22332;-88
